Terminal Aerodrome Forecast
Issued by NWS

Home | Current Version | Previous Version | Text Only | Print | Product List | Glossary Off
Versions: 1 2 3 4 5 6 7 8 9 10 11 12 13 14 15 16 17 18 19 20 21 22 23

000
FTUS43 KABR 050927 AAA
TAFATY
TAF AMD
KATY 050927Z 0509/0606 15009KT P6SM VCTS SCT070CB BKN200
     FM051600 18015G25KT P6SM SCT250
     FM052300 11010KT P6SM VCTS SCT050CB OVC080=

USA.gov is the U.S. government's official web portal to all federal, state and local government web resources and services.